Time;durP1;ratioP1;P1;durP2;ratioP2;P2;SDS_P1;SDS_P2;PMS_P1;PMS_P2;Temp;Humidity;BMP_temperature;BMP_pressure;BME280_temperature;BME280_humidity;BME280_pressure;Samples;Min_cycle;Max_cycle;Signal;HPM_P1;HPM_P2
2024/04/10 00:01:17;;;;;;;20.13;2.43;;;;;;;;;;5389684;26;20803;-67
2024/04/10 00:03:43;;;;;;;22.67;3.08;;;;;;;;;;5395727;26;20293;-68
2024/04/10 00:06:09;;;;;;;12.25;2.15;;;;;;;;;;5394370;26;20466;-67
2024/04/10 00:08:34;;;;;;;3.80;1.17;;;;;;;;;;5413707;26;19999;-68
2024/04/10 00:11:03;;;;;;;27.30;2.05;;;;;;;;;;5413614;26;20439;-67
2024/04/10 00:13:30;;;;;;;26.08;5.50;;;;;;;;;;5408930;26;20000;-67
2024/04/10 00:15:59;;;;;;;19.05;2.30;;;;;;;;;;5398369;26;20003;-67
2024/04/10 00:18:24;;;;;;;14.25;2.70;;;;;;;;;;5413713;26;20011;-67
2024/04/10 00:20:49;;;;;;;24.48;3.55;;;;;;;;;;5408925;26;20447;-68
2024/04/10 00:23:15;;;;;;;23.60;3.00;;;;;;;;;;5413062;26;20381;-67
2024/04/10 00:25:40;;;;;;;14.65;2.33;;;;;;;;;;5410590;26;20273;-67
2024/04/10 00:28:05;;;;;;;5.17;1.37;;;;;;;;;;5407889;26;20014;-67
2024/04/10 00:30:30;;;;;;;21.15;2.90;;;;;;;;;;5412929;26;20324;-67
2024/04/10 00:32:55;;;;;;;19.83;2.47;;;;;;;;;;5412626;26;20065;-67
2024/04/10 00:35:20;;;;;;;13.68;1.90;;;;;;;;;;5398599;26;20834;-67
2024/04/10 00:37:46;;;;;;;10.93;1.80;;;;;;;;;;5399136;26;19996;-67
2024/04/10 00:40:11;;;;;;;22.63;3.70;;;;;;;;;;5405075;26;20352;-67
2024/04/10 00:42:36;;;;;;;18.45;2.28;;;;;;;;;;5390564;26;20263;-67
2024/04/10 00:45:01;;;;;;;18.35;3.08;;;;;;;;;;5388371;26;20008;-67
2024/04/10 00:47:27;;;;;;;20.55;2.17;;;;;;;;;;5426301;26;20069;-67
2024/04/10 00:49:52;;;;;;;12.25;1.95;;;;;;;;;;5410007;26;20059;-67
2024/04/10 00:52:18;;;;;;;8.07;1.10;;;;;;;;;;5411056;26;19995;-67
2024/04/10 00:54:43;;;;;;;17.85;2.25;;;;;;;;;;5402725;26;20040;-67
2024/04/10 00:57:08;;;;;;;15.60;1.73;;;;;;;;;;5411964;26;20003;-67
2024/04/10 00:59:33;;;;;;;11.30;2.08;;;;;;;;;;5425693;26;20289;-67
2024/04/10 01:01:59;;;;;;;10.75;1.70;;;;;;;;;;5412119;26;20000;-67
2024/04/10 01:04:24;;;;;;;10.02;1.83;;;;;;;;;;5420341;26;20011;-67
2024/04/10 01:06:50;;;;;;;16.23;2.25;;;;;;;;;;5397022;26;20000;-67
2024/04/10 01:09:15;;;;;;;10.63;2.78;;;;;;;;;;5433846;26;20009;-67
2024/04/10 01:11:41;;;;;;;8.68;1.42;;;;;;;;;;5405774;26;19995;-67
2024/04/10 01:14:06;;;;;;;23.65;3.30;;;;;;;;;;5417067;26;20003;-67
2024/04/10 01:16:32;;;;;;;19.90;2.90;;;;;;;;;;5411084;26;20014;-68
2024/04/10 01:18:57;;;;;;;13.38;2.60;;;;;;;;;;5407697;26;20270;-67
2024/04/10 01:21:22;;;;;;;12.25;2.20;;;;;;;;;;5408036;26;19996;-67
2024/04/10 01:23:47;;;;;;;14.95;2.63;;;;;;;;;;5408429;26;20394;-68
2024/04/10 01:26:13;;;;;;;26.75;2.47;;;;;;;;;;5404582;26;19999;-67
2024/04/10 01:28:38;;;;;;;23.58;3.22;;;;;;;;;;5396987;26;20413;-68
2024/04/10 01:31:03;;;;;;;24.50;2.47;;;;;;;;;;5408000;26;20354;-67
2024/04/10 01:33:29;;;;;;;19.05;2.72;;;;;;;;;;5412369;26;20419;-67
2024/04/10 01:35:54;;;;;;;13.48;2.53;;;;;;;;;;5397879;26;19996;-67
2024/04/10 01:38:19;;;;;;;15.10;2.67;;;;;;;;;;5412332;26;19999;-68
2024/04/10 01:40:44;;;;;;;28.07;3.23;;;;;;;;;;5395098;26;19997;-68
2024/04/10 01:43:09;;;;;;;22.73;2.17;;;;;;;;;;5424865;26;20265;-68
2024/04/10 01:45:36;;;;;;;27.02;2.40;;;;;;;;;;5400957;26;20338;-68
2024/04/10 01:48:02;;;;;;;19.73;3.15;;;;;;;;;;5418696;26;20071;-67
2024/04/10 01:50:27;;;;;;;17.95;2.90;;;;;;;;;;5422001;26;20039;-68
2024/04/10 01:52:53;;;;;;;14.90;1.67;;;;;;;;;;5430724;26;20033;-67
2024/04/10 01:55:18;;;;;;;19.53;2.67;;;;;;;;;;5412060;26;20241;-68
2024/04/10 01:57:43;;;;;;;16.47;2.20;;;;;;;;;;5399835;26;20288;-67
2024/04/10 02:00:10;;;;;;;20.98;3.33;;;;;;;;;;5405899;26;20246;-68
2024/04/10 02:02:35;;;;;;;13.95;2.53;;;;;;;;;;5395185;26;20320;-68
2024/04/10 02:05:00;;;;;;;17.97;2.50;;;;;;;;;;5381699;26;20077;-68
2024/04/10 02:07:25;;;;;;;19.97;3.40;;;;;;;;;;5397918;26;20225;-68
2024/04/10 02:09:50;;;;;;;6.30;2.43;;;;;;;;;;5396046;26;20751;-67
2024/04/10 02:12:15;;;;;;;20.40;2.30;;;;;;;;;;5398988;26;20274;-67
2024/04/10 02:14:41;;;;;;;25.07;2.60;;;;;;;;;;5401187;26;20634;-67
2024/04/10 02:17:06;;;;;;;14.50;2.20;;;;;;;;;;5405462;26;20245;-68
2024/04/10 02:19:31;;;;;;;20.13;2.87;;;;;;;;;;5405323;26;20207;-67
2024/04/10 02:21:57;;;;;;;33.10;4.43;;;;;;;;;;5391687;26;20221;-67
2024/04/10 02:24:22;;;;;;;11.95;2.38;;;;;;;;;;5390110;26;20278;-67
2024/04/10 02:26:47;;;;;;;17.03;2.73;;;;;;;;;;5407753;26;20076;-67
2024/04/10 02:29:13;;;;;;;17.95;2.80;;;;;;;;;;5395861;26;20265;-68
2024/04/10 02:31:38;;;;;;;24.13;2.80;;;;;;;;;;5403693;26;20442;-68
2024/04/10 02:34:04;;;;;;;22.85;3.47;;;;;;;;;;5393498;26;20000;-68
2024/04/10 02:36:29;;;;;;;15.68;2.70;;;;;;;;;;5383499;26;20007;-67
2024/04/10 02:38:54;;;;;;;14.03;2.67;;;;;;;;;;5382715;26;20300;-67
2024/04/10 02:41:20;;;;;;;13.90;2.83;;;;;;;;;;5378759;26;20656;-68
2024/04/10 02:43:46;;;;;;;19.50;2.42;;;;;;;;;;5379483;26;19992;-67
2024/04/10 02:46:15;;;;;;;;;;;;;;;;;;5390603;26;20007;-67
2024/04/10 02:48:40;;;;;;;24.48;2.50;;;;;;;;;;5382914;26;19933;-67
2024/04/10 02:51:06;;;;;;;19.47;3.63;;;;;;;;;;5386232;26;20366;-68
2024/04/10 02:53:31;;;;;;;30.08;3.25;;;;;;;;;;5395969;26;20222;-67
2024/04/10 02:55:56;;;;;;;23.07;2.43;;;;;;;;;;5393425;26;19996;-68
2024/04/10 02:58:21;;;;;;;28.47;2.40;;;;;;;;;;5410750;26;20254;-68
2024/04/10 03:00:51;;;;;;;15.23;2.70;;;;;;;;;;5406544;26;20316;-67
2024/04/10 03:03:16;;;;;;;11.85;2.20;;;;;;;;;;5411342;26;20466;-68
2024/04/10 03:05:42;;;;;;;31.25;2.80;;;;;;;;;;5392494;26;19996;-68
2024/04/10 03:08:08;;;;;;;22.60;2.80;;;;;;;;;;5380568;26;20467;-68
2024/04/10 03:10:34;;;;;;;6.53;2.17;;;;;;;;;;5387547;26;20052;-68
2024/04/10 03:12:59;;;;;;;22.65;3.08;;;;;;;;;;5403416;26;20007;-67
2024/04/10 03:15:25;;;;;;;22.23;3.23;;;;;;;;;;5409102;26;19992;-67
2024/04/10 03:17:50;;;;;;;13.45;2.88;;;;;;;;;;5407988;26;20227;-68
2024/04/10 03:20:17;;;;;;;24.90;2.92;;;;;;;;;;5408678;26;20345;-68
2024/04/10 03:22:42;;;;;;;18.73;2.58;;;;;;;;;;5403717;26;20358;-68
2024/04/10 03:25:07;;;;;;;25.20;2.88;;;;;;;;;;5405152;26;19995;-68
2024/04/10 03:27:33;;;;;;;20.35;2.63;;;;;;;;;;5409464;26;20335;-68
2024/04/10 03:29:58;;;;;;;9.82;1.67;;;;;;;;;;5411998;26;20018;-67
2024/04/10 03:32:23;;;;;;;25.52;2.40;;;;;;;;;;5410844;26;20000;-68
2024/04/10 03:34:49;;;;;;;16.52;4.43;;;;;;;;;;5411662;26;19999;-68
2024/04/10 03:37:14;;;;;;;17.42;3.30;;;;;;;;;;5401521;26;20334;-67
2024/04/10 03:39:39;;;;;;;22.87;2.23;;;;;;;;;;5409706;26;20033;-67
2024/04/10 03:42:04;;;;;;;18.75;2.42;;;;;;;;;;5412898;26;20233;-68
2024/04/10 03:44:30;;;;;;;26.75;2.83;;;;;;;;;;5397165;26;19999;-67
2024/04/10 03:46:55;;;;;;;37.07;3.13;;;;;;;;;;5404045;26;19991;-67
2024/04/10 03:49:20;;;;;;;16.27;3.03;;;;;;;;;;5401022;26;20637;-67
2024/04/10 03:51:45;;;;;;;23.70;3.27;;;;;;;;;;5411057;26;20233;-67
2024/04/10 03:54:10;;;;;;;28.27;3.65;;;;;;;;;;5408521;26;20231;-68
2024/04/10 03:56:36;;;;;;;16.83;3.85;;;;;;;;;;5413413;26;20036;-67
2024/04/10 03:59:01;;;;;;;23.73;3.73;;;;;;;;;;5396118;26;20015;-67
2024/04/10 04:01:26;;;;;;;34.03;4.80;;;;;;;;;;5394541;26;20285;-67
2024/04/10 04:03:51;;;;;;;19.07;4.33;;;;;;;;;;5408493;26;20226;-67
2024/04/10 04:06:16;;;;;;;17.90;3.33;;;;;;;;;;5400546;26;20333;-67
2024/04/10 04:08:41;;;;;;;33.77;4.33;;;;;;;;;;5403379;26;20027;-67
2024/04/10 04:11:07;;;;;;;24.40;4.53;;;;;;;;;;5403798;26;20293;-67
2024/04/10 04:13:32;;;;;;;15.88;3.15;;;;;;;;;;5405099;26;20273;-67
2024/04/10 04:15:57;;;;;;;24.37;4.73;;;;;;;;;;5404729;26;19988;-67
2024/04/10 04:18:22;;;;;;;11.38;3.03;;;;;;;;;;5402788;26;21066;-67
2024/04/10 04:20:48;;;;;;;24.40;4.67;;;;;;;;;;5404722;26;20007;-67
2024/04/10 04:23:13;;;;;;;22.02;4.00;;;;;;;;;;5401662;26;20831;-67
2024/04/10 04:25:39;;;;;;;24.27;4.43;;;;;;;;;;5404658;26;19999;-67
2024/04/10 04:28:04;;;;;;;17.27;3.47;;;;;;;;;;5408201;26;20594;-67
2024/04/10 04:30:29;;;;;;;29.60;4.03;;;;;;;;;;5408164;26;20438;-67
2024/04/10 04:32:54;;;;;;;21.87;4.50;;;;;;;;;;5405719;26;20269;-67
2024/04/10 04:35:20;;;;;;;17.27;3.67;;;;;;;;;;5392305;26;20271;-67
2024/04/10 04:37:53;;;;;;;28.70;6.25;;;;;;;;;;5397222;26;20010;-67
2024/04/10 04:40:18;;;;;;;23.15;3.80;;;;;;;;;;5409841;26;20499;-67
2024/04/10 04:42:43;;;;;;;19.37;3.50;;;;;;;;;;5401570;26;20068;-67
2024/04/10 04:45:08;;;;;;;28.97;4.27;;;;;;;;;;5412454;26;20267;-67
2024/04/10 04:47:34;;;;;;;28.67;4.20;;;;;;;;;;5406781;26;20233;-67
2024/04/10 04:49:59;;;;;;;19.87;4.20;;;;;;;;;;5405755;26;20233;-67
2024/04/10 04:52:24;;;;;;;21.00;4.07;;;;;;;;;;5402503;26;20569;-67
2024/04/10 04:54:49;;;;;;;28.63;5.47;;;;;;;;;;5392663;26;20016;-67
2024/04/10 04:57:14;;;;;;;27.13;4.43;;;;;;;;;;5401570;26;20388;-67
2024/04/10 04:59:39;;;;;;;30.08;5.15;;;;;;;;;;5400087;26;20466;-67
2024/04/10 05:02:06;;;;;;;30.90;4.23;;;;;;;;;;5398446;26;20011;-67
2024/04/10 05:07:15;;;;;;;25.23;5.43;;;;;;;;;;5390753;26;20007;-67
2024/04/10 05:09:40;;;;;;;18.83;3.90;;;;;;;;;;5395961;26;20297;-67
2024/04/10 05:12:05;;;;;;;15.97;3.20;;;;;;;;;;5393044;26;20498;-67
2024/04/10 05:14:31;;;;;;;21.88;3.22;;;;;;;;;;5401929;26;20269;-67
2024/04/10 05:16:56;;;;;;;16.93;2.97;;;;;;;;;;5417704;26;20348;-67
2024/04/10 05:19:21;;;;;;;19.50;5.63;;;;;;;;;;5393026;26;20356;-67
2024/04/10 05:21:46;;;;;;;28.85;4.10;;;;;;;;;;5399413;26;20265;-67
2024/04/10 05:24:11;;;;;;;26.43;3.37;;;;;;;;;;5399500;26;20014;-67
2024/04/10 05:26:36;;;;;;;26.07;3.10;;;;;;;;;;5395212;26;20235;-67
2024/04/10 05:29:02;;;;;;;23.00;3.90;;;;;;;;;;5392841;26;20285;-66
2024/04/10 05:31:27;;;;;;;22.27;3.17;;;;;;;;;;5394424;26;20244;-67
2024/04/10 05:33:52;;;;;;;18.98;3.13;;;;;;;;;;5382748;26;20008;-67
2024/04/10 05:36:18;;;;;;;27.58;3.88;;;;;;;;;;5401652;26;20425;-67
2024/04/10 05:38:43;;;;;;;16.08;2.88;;;;;;;;;;5401086;26;20341;-67
2024/04/10 05:41:08;;;;;;;21.45;3.08;;;;;;;;;;5399430;26;20074;-67
2024/04/10 05:43:34;;;;;;;7.57;1.73;;;;;;;;;;5410512;26;19999;-67
2024/04/10 05:45:59;;;;;;;24.67;3.40;;;;;;;;;;5416467;26;20242;-67
2024/04/10 05:48:25;;;;;;;12.60;2.35;;;;;;;;;;5392827;26;20230;-67
2024/04/10 05:50:59;;;;;;;10.07;2.37;;;;;;;;;;5402602;26;20007;-67
2024/04/10 05:53:24;;;;;;;24.10;3.40;;;;;;;;;;5404540;26;20261;-68
2024/04/10 05:55:49;;;;;;;24.20;2.92;;;;;;;;;;5407522;26;20003;-68
2024/04/10 05:58:14;;;;;;;22.27;3.23;;;;;;;;;;5404937;26;20002;-65
2024/04/10 06:00:40;;;;;;;31.37;3.57;;;;;;;;;;5400402;26;20711;-65
2024/04/10 06:03:05;;;;;;;9.00;3.10;;;;;;;;;;5398011;26;20245;-65
2024/04/10 06:05:30;;;;;;;15.97;4.00;;;;;;;;;;5400358;26;20234;-65
2024/04/10 06:07:55;;;;;;;27.23;3.37;;;;;;;;;;5405910;26;20225;-65
2024/04/10 06:10:20;;;;;;;19.10;3.23;;;;;;;;;;5396943;26;20238;-65
2024/04/10 06:12:52;;;;;;;27.37;3.00;;;;;;;;;;5400920;26;20277;-65
2024/04/10 06:15:17;;;;;;;19.92;3.10;;;;;;;;;;5399826;26;20279;-65
2024/04/10 06:17:42;;;;;;;22.73;2.60;;;;;;;;;;5409842;26;20134;-65
2024/04/10 06:20:11;;;;;;;22.23;3.55;;;;;;;;;;5402241;26;20095;-65
2024/04/10 06:22:36;;;;;;;24.45;2.80;;;;;;;;;;5399321;26;20004;-66
2024/04/10 06:25:01;;;;;;;21.98;2.58;;;;;;;;;;5405090;26;20450;-66
2024/04/10 06:27:26;;;;;;;28.63;3.25;;;;;;;;;;5399185;26;20011;-66
2024/04/10 06:29:52;;;;;;;28.13;2.95;;;;;;;;;;5405067;26;19999;-68
2024/04/10 06:32:17;;;;;;;19.13;3.33;;;;;;;;;;5397509;26;19996;-66
2024/04/10 06:34:42;;;;;;;22.42;3.15;;;;;;;;;;5409260;26;20608;-66
2024/04/10 06:37:07;;;;;;;18.98;2.80;;;;;;;;;;5400181;26;20506;-66
2024/04/10 06:39:33;;;;;;;14.32;2.97;;;;;;;;;;5398475;26;19992;-66
2024/04/10 06:41:58;;;;;;;15.25;2.60;;;;;;;;;;5403503;26;20014;-66
2024/04/10 06:44:26;;;;;;;27.97;3.47;;;;;;;;;;5395326;26;19996;-66
2024/04/10 06:46:51;;;;;;;17.00;2.55;;;;;;;;;;5408172;26;20359;-66
2024/04/10 06:49:16;;;;;;;21.23;3.53;;;;;;;;;;5403314;26;20467;-66
2024/04/10 06:51:42;;;;;;;26.88;4.47;;;;;;;;;;5396566;26;20007;-66
2024/04/10 06:54:07;;;;;;;24.70;4.80;;;;;;;;;;5401464;26;20004;-67
2024/04/10 06:56:32;;;;;;;13.13;3.13;;;;;;;;;;5405587;26;20276;-66
2024/04/10 06:58:58;;;;;;;15.20;3.20;;;;;;;;;;5403106;26;20240;-65
2024/04/10 07:01:23;;;;;;;22.95;5.32;;;;;;;;;;5391741;26;20334;-66
2024/04/10 07:03:48;;;;;;;19.42;3.20;;;;;;;;;;5407639;26;20003;-68
2024/04/10 07:06:14;;;;;;;20.53;3.27;;;;;;;;;;5407155;26;20010;-66
2024/04/10 07:08:41;;;;;;;22.65;3.75;;;;;;;;;;5404825;26;20233;-66
2024/04/10 07:11:11;;;;;;;30.58;3.33;;;;;;;;;;5400828;26;20007;-66
2024/04/10 07:13:36;;;;;;;;;;;;;;;;;;5403377;26;20004;-66
2024/04/10 07:16:02;;;;;;;20.20;5.38;;;;;;;;;;5410703;26;19925;-66
2024/04/10 07:18:28;;;;;;;15.48;3.05;;;;;;;;;;5412204;26;20003;-66
2024/04/10 07:20:59;;;;;;;25.50;4.28;;;;;;;;;;5408096;26;20563;-66
2024/04/10 07:23:25;;;;;;;21.63;4.10;;;;;;;;;;5403513;26;20001;-66
2024/04/10 07:25:50;;;;;;;15.73;2.53;;;;;;;;;;5401111;26;20010;-66
2024/04/10 07:28:15;;;;;;;24.87;3.60;;;;;;;;;;5407268;26;20286;-65
2024/04/10 07:30:46;;;;;;;17.07;3.13;;;;;;;;;;5399515;26;20665;-66
2024/04/10 07:33:11;;;;;;;17.10;3.03;;;;;;;;;;5405378;26;20302;-66
2024/04/10 07:35:37;;;;;;;29.40;3.27;;;;;;;;;;5401237;26;20004;-66
2024/04/10 07:38:03;;;;;;;10.77;2.97;;;;;;;;;;5406064;26;20657;-66
2024/04/10 07:40:28;;;;;;;20.08;3.33;;;;;;;;;;5399294;26;20004;-65
2024/04/10 07:42:53;;;;;;;25.48;2.60;;;;;;;;;;5410996;26;20004;-66
2024/04/10 07:45:19;;;;;;;26.05;3.63;;;;;;;;;;5400832;26;20027;-66
2024/04/10 07:47:44;;;;;;;18.90;4.03;;;;;;;;;;5412092;26;19995;-66
2024/04/10 07:50:09;;;;;;;21.20;4.03;;;;;;;;;;5407212;26;20435;-67
2024/04/10 07:52:34;;;;;;;18.50;3.95;;;;;;;;;;5409925;26;20478;-67
2024/04/10 07:55:00;;;;;;;23.92;4.78;;;;;;;;;;5395057;26;19999;-67
2024/04/10 07:57:25;;;;;;;19.20;4.55;;;;;;;;;;5399584;26;19996;-67
2024/04/10 07:59:51;;;;;;;23.43;4.17;;;;;;;;;;5400121;26;19996;-67
2024/04/10 08:02:18;;;;;;;21.48;5.57;;;;;;;;;;5400862;26;20264;-67
2024/04/10 08:04:43;;;;;;;17.88;4.28;;;;;;;;;;5404983;26;20004;-67
2024/04/10 08:07:08;;;;;;;18.42;4.00;;;;;;;;;;5406466;26;20003;-67
2024/04/10 08:09:34;;;;;;;18.57;4.10;;;;;;;;;;5406110;26;20010;-67
2024/04/10 08:11:59;;;;;;;18.23;2.73;;;;;;;;;;5403701;26;20269;-67
2024/04/10 08:14:24;;;;;;;15.40;3.53;;;;;;;;;;5406958;26;20293;-67
2024/04/10 08:16:49;;;;;;;21.40;4.03;;;;;;;;;;5405902;26;20004;-67
2024/04/10 08:19:15;;;;;;;18.93;4.10;;;;;;;;;;5398108;26;20234;-67
2024/04/10 08:21:41;;;;;;;20.98;3.47;;;;;;;;;;5394814;26;20335;-67
2024/04/10 08:24:07;;;;;;;23.30;4.63;;;;;;;;;;5405919;26;20008;-67
2024/04/10 08:26:33;;;;;;;14.00;3.88;;;;;;;;;;5412359;26;20076;-67
2024/04/10 08:28:59;;;;;;;17.75;4.63;;;;;;;;;;5407548;26;20014;-67
2024/04/10 08:31:24;;;;;;;28.23;4.38;;;;;;;;;;5399245;26;20003;-67
2024/04/10 08:33:51;;;;;;;26.85;3.63;;;;;;;;;;5412647;26;20010;-68
2024/04/10 08:36:16;;;;;;;19.90;4.93;;;;;;;;;;5403833;26;20007;-68
2024/04/10 08:38:42;;;;;;;19.05;4.38;;;;;;;;;;5395712;26;20004;-67
2024/04/10 08:41:14;;;;;;;19.10;3.55;;;;;;;;;;5400509;26;20012;-68
2024/04/10 08:43:40;;;;;;;27.10;4.30;;;;;;;;;;5402499;26;20073;-68
2024/04/10 08:46:07;;;;;;;18.10;3.78;;;;;;;;;;5408427;26;20012;-67
2024/04/10 08:48:33;;;;;;;22.17;4.63;;;;;;;;;;5404552;26;20400;-68
2024/04/10 08:50:59;;;;;;;9.27;2.95;;;;;;;;;;5404558;26;19999;-67
2024/04/10 08:53:24;;;;;;;17.60;3.72;;;;;;;;;;5399400;26;20015;-67
2024/04/10 08:55:50;;;;;;;16.52;4.55;;;;;;;;;;5396120;26;20010;-68
2024/04/10 08:58:15;;;;;;;18.00;3.85;;;;;;;;;;5393582;26;20267;-65
2024/04/10 09:00:44;;;;;;;20.73;3.97;;;;;;;;;;5393379;26;19996;-66
2024/04/10 09:03:10;;;;;;;13.32;2.88;;;;;;;;;;5395470;26;20237;-68
2024/04/10 09:05:35;;;;;;;17.05;3.90;;;;;;;;;;5393106;26;20362;-67
2024/04/10 09:08:00;;;;;;;24.33;4.33;;;;;;;;;;5404729;26;19992;-65
2024/04/10 09:10:25;;;;;;;17.33;4.43;;;;;;;;;;5397324;26;20738;-68
2024/04/10 09:12:51;;;;;;;16.00;4.47;;;;;;;;;;5401815;26;20333;-65
2024/04/10 09:15:19;;;;;;;24.67;4.57;;;;;;;;;;5397092;26;19992;-68
2024/04/10 09:17:44;;;;;;;17.85;3.90;;;;;;;;;;5411986;26;20241;-65
2024/04/10 09:20:13;;;;;;;14.50;2.88;;;;;;;;;;5401774;26;20077;-66
2024/04/10 09:22:38;;;;;;;19.42;3.42;;;;;;;;;;5399540;26;20374;-68
2024/04/10 09:25:12;;;;;;;21.83;3.53;;;;;;;;;;5396563;26;19995;-68
2024/04/10 09:27:38;;;;;;;17.17;4.35;;;;;;;;;;5409437;26;20023;-66
2024/04/10 09:30:05;;;;;;;22.40;4.32;;;;;;;;;;5421009;26;20014;-66
2024/04/10 09:32:32;;;;;;;19.73;3.53;;;;;;;;;;5412373;26;20015;-68
2024/04/10 09:34:57;;;;;;;15.07;3.33;;;;;;;;;;5409951;26;20026;-65
2024/04/10 09:37:23;;;;;;;18.08;3.50;;;;;;;;;;5408102;26;20047;-66
2024/04/10 09:39:50;;;;;;;14.82;3.35;;;;;;;;;;5421866;26;20439;-66
2024/04/10 09:42:31;;;;;;;19.27;4.25;;;;;;;;;;5411539;26;20331;-66
2024/04/10 09:45:00;;;;;;;17.88;3.97;;;;;;;;;;5412842;26;20439;-66
2024/04/10 09:47:25;;;;;;;14.55;3.90;;;;;;;;;;5412660;26;20009;-66
2024/04/10 09:49:53;;;;;;;15.82;3.20;;;;;;;;;;5418296;26;19991;-66
2024/04/10 09:52:18;;;;;;;13.90;4.18;;;;;;;;;;5412270;26;20464;-66
2024/04/10 09:54:45;;;;;;;17.88;5.15;;;;;;;;;;5410298;26;20000;-66
2024/04/10 09:57:13;;;;;;;16.50;4.65;;;;;;;;;;5428120;26;20035;-66
2024/04/10 09:59:38;;;;;;;13.68;3.65;;;;;;;;;;5425033;26;20354;-66
2024/04/10 10:02:07;;;;;;;20.13;4.82;;;;;;;;;;5420025;26;20035;-66
2024/04/10 10:04:36;;;;;;;18.92;3.88;;;;;;;;;;5418048;26;20054;-66
2024/04/10 10:07:01;;;;;;;20.20;4.15;;;;;;;;;;5409428;26;20059;-66
2024/04/10 10:09:26;;;;;;;20.47;6.03;;;;;;;;;;5401783;26;20011;-66
2024/04/10 10:11:55;;;;;;;25.27;6.33;;;;;;;;;;5405788;26;20236;-68
2024/04/10 10:14:24;;;;;;;21.40;7.80;;;;;;;;;;5409201;26;20235;-68
2024/04/10 10:16:49;;;;;;;19.40;6.88;;;;;;;;;;5398482;26;20000;-68
2024/04/10 10:19:19;;;;;;;18.48;5.47;;;;;;;;;;5418507;26;20006;-66
2024/04/10 10:21:44;;;;;;;14.90;5.50;;;;;;;;;;5426266;26;20075;-66
2024/04/10 10:24:12;;;;;;;18.80;6.30;;;;;;;;;;5412529;26;19999;-66
2024/04/10 10:26:37;;;;;;;18.40;5.88;;;;;;;;;;5436932;26;20500;-65
2024/04/10 10:29:06;;;;;;;14.23;4.05;;;;;;;;;;5421509;26;20028;-66
2024/04/10 10:31:32;;;;;;;12.52;3.47;;;;;;;;;;5418371;26;20000;-66
2024/04/10 10:34:00;;;;;;;15.75;3.88;;;;;;;;;;5404247;26;20368;-68
2024/04/10 10:36:25;;;;;;;17.48;4.63;;;;;;;;;;5404002;26;20027;-68
2024/04/10 10:39:05;;;;;;;16.27;4.50;;;;;;;;;;5409859;26;20010;-66
2024/04/10 10:41:30;;;;;;;12.35;4.07;;;;;;;;;;5392054;26;20375;-66
2024/04/10 10:43:59;;;;;;;14.98;4.03;;;;;;;;;;5408560;26;20091;-66
2024/04/10 10:46:24;;;;;;;12.50;3.75;;;;;;;;;;5403375;26;20079;-66
2024/04/10 10:48:49;;;;;;;15.60;5.35;;;;;;;;;;5410624;26;20003;-66
2024/04/10 10:51:17;;;;;;;16.65;4.68;;;;;;;;;;5405552;26;20102;-67
2024/04/10 10:53:43;;;;;;;9.88;4.28;;;;;;;;;;5403684;26;20003;-68
2024/04/10 10:56:08;;;;;;;10.05;4.25;;;;;;;;;;5405900;26;20004;-68
2024/04/10 10:58:33;;;;;;;20.02;4.80;;;;;;;;;;5417080;26;20015;-66
2024/04/10 11:00:58;;;;;;;12.52;4.30;;;;;;;;;;5402067;26;20000;-68
2024/04/10 11:03:25;;;;;;;22.30;5.20;;;;;;;;;;5413139;26;20045;-68
2024/04/10 11:05:50;;;;;;;10.20;4.03;;;;;;;;;;5420216;26;20229;-66
2024/04/10 11:08:22;;;;;;;10.53;4.40;;;;;;;;;;5404726;26;20068;-66
2024/04/10 11:10:49;;;;;;;12.52;2.83;;;;;;;;;;5425140;26;20568;-66
2024/04/10 11:13:14;;;;;;;11.80;3.67;;;;;;;;;;5410379;26;20509;-68
2024/04/10 11:15:46;;;;;;;14.70;4.97;;;;;;;;;;5420635;26;20006;-66
2024/04/10 11:18:16;;;;;;;7.72;1.77;;;;;;;;;;5406539;26;20010;-67
2024/04/10 11:20:41;;;;;;;12.80;2.87;;;;;;;;;;5395915;26;19999;-67
2024/04/10 11:23:06;;;;;;;10.20;2.63;;;;;;;;;;5416845;26;20657;-67
2024/04/10 11:25:34;;;;;;;13.43;2.63;;;;;;;;;;5424330;26;19999;-66
2024/04/10 11:27:59;;;;;;;1.45;1.30;;;;;;;;;;5420663;26;20079;-67
2024/04/10 11:30:25;;;;;;;7.93;3.03;;;;;;;;;;5413380;26;20482;-67
2024/04/10 11:32:51;;;;;;;10.15;1.95;;;;;;;;;;5414884;26;20465;-67
2024/04/10 11:35:16;;;;;;;8.27;2.42;;;;;;;;;;5393324;26;20018;-66
2024/04/10 11:37:41;;;;;;;9.10;2.90;;;;;;;;;;5421392;26;19999;-66
2024/04/10 11:40:11;;;;;;;11.32;1.83;;;;;;;;;;5422731;26;20237;-66
2024/04/10 11:42:40;;;;;;;9.18;2.38;;;;;;;;;;5425887;26;20003;-66
2024/04/10 11:45:07;;;;;;;8.00;2.20;;;;;;;;;;5412794;26;20377;-66
2024/04/10 11:47:32;;;;;;;10.43;3.10;;;;;;;;;;5399648;26;20011;-67
2024/04/10 11:49:58;;;;;;;6.78;2.20;;;;;;;;;;5384324;26;20011;-66
2024/04/10 11:52:23;;;;;;;11.00;2.58;;;;;;;;;;5407578;26;20076;-66
2024/04/10 11:54:48;;;;;;;8.13;2.20;;;;;;;;;;5407875;26;20014;-67
2024/04/10 11:57:13;;;;;;;8.13;2.27;;;;;;;;;;5412930;26;20294;-66
2024/04/10 11:59:38;;;;;;;9.13;2.43;;;;;;;;;;5421584;26;20723;-66
2024/04/10 12:02:04;;;;;;;8.02;2.03;;;;;;;;;;5407253;26;20237;-66
2024/04/10 12:04:29;;;;;;;8.18;2.10;;;;;;;;;;5418182;26;20006;-68
2024/04/10 12:06:55;;;;;;;15.02;2.28;;;;;;;;;;5426794;26;20087;-66
2024/04/10 12:09:20;;;;;;;9.07;1.88;;;;;;;;;;5416689;26;20371;-66
2024/04/10 12:11:46;;;;;;;8.47;2.10;;;;;;;;;;5427083;26;20446;-66
2024/04/10 12:14:11;;;;;;;11.63;2.43;;;;;;;;;;5410850;26;20225;-66
2024/04/10 12:16:36;;;;;;;13.50;2.30;;;;;;;;;;5399659;26;20252;-67
2024/04/10 12:19:01;;;;;;;12.70;2.37;;;;;;;;;;5420538;26;20799;-66
2024/04/10 12:21:27;;;;;;;4.90;2.00;;;;;;;;;;5419912;26;20233;-67
2024/04/10 12:23:52;;;;;;;6.85;2.00;;;;;;;;;;5415885;26;19999;-67
2024/04/10 12:26:18;;;;;;;7.40;2.27;;;;;;;;;;5432748;26;20008;-66
2024/04/10 12:28:44;;;;;;;10.25;2.45;;;;;;;;;;5417877;26;20237;-66
2024/04/10 12:31:09;;;;;;;6.88;2.55;;;;;;;;;;5412567;26;19996;-66
2024/04/10 12:33:37;;;;;;;11.67;2.77;;;;;;;;;;5407778;26;20337;-67
2024/04/10 12:38:46;;;;;;;7.93;3.10;;;;;;;;;;5420605;26;20422;-66
2024/04/10 12:41:11;;;;;;;11.23;2.42;;;;;;;;;;5413050;26;20442;-67
2024/04/10 12:43:40;;;;;;;12.40;3.80;;;;;;;;;;5420295;26;20350;-67
2024/04/10 12:46:05;;;;;;;8.20;2.60;;;;;;;;;;5421387;26;20870;-66
2024/04/10 12:48:32;;;;;;;6.55;3.00;;;;;;;;;;5420042;26;19999;-66
2024/04/10 12:50:57;;;;;;;11.63;3.30;;;;;;;;;;5414879;26;20003;-68
2024/04/10 12:53:23;;;;;;;9.57;2.77;;;;;;;;;;5409393;26;20364;-66
2024/04/10 12:55:52;;;;;;;12.67;3.17;;;;;;;;;;5427594;26;20323;-66
2024/04/10 12:58:17;;;;;;;10.32;4.28;;;;;;;;;;5421758;26;20995;-66
2024/04/10 13:00:42;;;;;;;9.43;3.08;;;;;;;;;;5408076;26;20011;-66
2024/04/10 13:03:08;;;;;;;8.07;2.67;;;;;;;;;;5396018;26;20003;-67
2024/04/10 13:05:33;;;;;;;20.87;3.30;;;;;;;;;;5412249;26;20307;-66
2024/04/10 13:07:58;;;;;;;9.63;2.60;;;;;;;;;;5421132;26;20272;-66
2024/04/10 13:10:23;;;;;;;10.27;3.03;;;;;;;;;;5416270;26;19996;-66
2024/04/10 13:12:48;;;;;;;11.63;2.30;;;;;;;;;;5424784;26;20002;-66
2024/04/10 13:15:14;;;;;;;5.40;1.43;;;;;;;;;;5418828;26;20274;-66
2024/04/10 13:17:39;;;;;;;5.10;1.00;;;;;;;;;;5412008;26;20620;-67
2024/04/10 13:20:05;;;;;;;6.13;1.65;;;;;;;;;;5408775;26;20014;-67
2024/04/10 13:22:30;;;;;;;10.48;1.90;;;;;;;;;;5409595;26;20237;-67
2024/04/10 13:24:55;;;;;;;9.88;2.78;;;;;;;;;;5420446;26;20434;-67
2024/04/10 13:27:20;;;;;;;14.02;2.20;;;;;;;;;;5412321;26;20330;-66
2024/04/10 13:29:49;;;;;;;6.47;2.50;;;;;;;;;;5436844;26;20067;-67
2024/04/10 13:32:14;;;;;;;12.18;2.45;;;;;;;;;;5405362;26;20727;-67
2024/04/10 13:34:40;;;;;;;10.90;2.40;;;;;;;;;;5412532;26;20003;-67
2024/04/10 13:37:08;;;;;;;9.75;2.60;;;;;;;;;;5430287;26;20003;-67
2024/04/10 13:39:33;;;;;;;7.85;1.75;;;;;;;;;;5417049;26;20530;-67
2024/04/10 13:41:58;;;;;;;10.33;2.40;;;;;;;;;;5420758;26;20007;-67
2024/04/10 13:44:23;;;;;;;11.55;2.45;;;;;;;;;;5419109;26;20229;-67
2024/04/10 13:46:49;;;;;;;7.57;2.22;;;;;;;;;;5402133;26;20005;-67
2024/04/10 13:49:14;;;;;;;10.88;2.38;;;;;;;;;;5409579;26;19995;-67
2024/04/10 13:51:39;;;;;;;14.02;2.63;;;;;;;;;;5409278;26;20007;-66
2024/04/10 13:54:04;;;;;;;14.95;2.42;;;;;;;;;;5420209;26;19995;-67
2024/04/10 13:56:30;;;;;;;10.13;1.60;;;;;;;;;;5411227;26;20006;-67
2024/04/10 13:58:55;;;;;;;4.97;1.83;;;;;;;;;;5418275;26;20004;-67
2024/04/10 14:01:21;;;;;;;11.63;2.40;;;;;;;;;;5411570;26;20262;-67
2024/04/10 14:03:47;;;;;;;10.32;1.83;;;;;;;;;;5436524;26;20801;-69
2024/04/10 14:06:12;;;;;;;13.43;2.33;;;;;;;;;;5412051;26;20010;-67
2024/04/10 14:08:40;;;;;;;15.07;2.20;;;;;;;;;;5421101;26;20036;-66
2024/04/10 14:11:05;;;;;;;9.63;2.35;;;;;;;;;;5398443;26;20032;-66
2024/04/10 14:13:34;;;;;;;10.10;2.28;;;;;;;;;;5395944;26;20010;-66
2024/04/10 14:15:59;;;;;;;7.55;1.90;;;;;;;;;;5407356;26;20000;-67
2024/04/10 14:18:25;;;;;;;7.55;2.45;;;;;;;;;;5417868;26;20513;-67
2024/04/10 14:21:00;;;;;;;7.03;1.60;;;;;;;;;;5428520;26;20016;-67
2024/04/10 14:23:25;;;;;;;14.43;2.00;;;;;;;;;;5409139;26;20051;-67
2024/04/10 14:25:54;;;;;;;9.38;1.70;;;;;;;;;;5404220;26;20011;-67
2024/04/10 14:28:22;;;;;;;17.77;2.20;;;;;;;;;;5400600;26;20032;-67
2024/04/10 14:31:04;;;;;;;8.27;2.67;;;;;;;;;;5429069;26;20006;-67